sensor_id;sensor_type;location;lat;lon;timestamp;pressure;altitude;pressure_sealevel;temperature;humidity
58622;BME280;44389;51.578;5.456;2023-07-02T00:00:01;100580.59;;;16.08;100.00
58622;BME280;44389;51.578;5.456;2023-07-02T00:02:26;100577.09;;;15.96;100.00
58622;BME280;44389;51.578;5.456;2023-07-02T00:04:52;100569.31;;;15.93;100.00
58622;BME280;44389;51.578;5.456;2023-07-02T00:07:17;100571.03;;;15.91;100.00
58622;BME280;44389;51.578;5.456;2023-07-02T00:09:42;100577.97;;;15.91;100.00
58622;BME280;44389;51.578;5.456;2023-07-02T00:12:08;100573.63;;;15.91;100.00
58622;BME280;44389;51.578;5.456;2023-07-02T00:14:34;100563.22;;;15.90;100.00
58622;BME280;44389;51.578;5.456;2023-07-02T00:16:59;100565.81;;;15.90;100.00
58622;BME280;44389;51.578;5.456;2023-07-02T00:19:25;100572.75;;;15.88;100.00
58622;BME280;44389;51.578;5.456;2023-07-02T00:21:50;100577.94;;;15.88;100.00
58622;BME280;44389;51.578;5.456;2023-07-02T00:24:18;100567.56;;;15.94;100.00
58622;BME280;44389;51.578;5.456;2023-07-02T00:26:43;100546.75;;;15.88;100.00
58622;BME280;44389;51.578;5.456;2023-07-02T00:29:08;100537.22;;;15.84;100.00
58622;BME280;44389;51.578;5.456;2023-07-02T00:31:36;100541.50;;;15.78;100.00
58622;BME280;44389;51.578;5.456;2023-07-02T00:34:02;100549.28;;;15.69;100.00
58622;BME280;44389;51.578;5.456;2023-07-02T00:36:28;100558.78;;;15.61;100.00
58622;BME280;44389;51.578;5.456;2023-07-02T00:38:54;100572.56;;;15.52;100.00
58622;BME280;44389;51.578;5.456;2023-07-02T00:41:19;100575.19;;;15.51;100.00
58622;BME280;44389;51.578;5.456;2023-07-02T00:43:45;100572.53;;;15.44;100.00
58622;BME280;44389;51.578;5.456;2023-07-02T00:46:15;100574.22;;;15.33;100.00
58622;BME280;44389;51.578;5.456;2023-07-02T00:48:52;100580.28;;;15.38;100.00
58622;BME280;44389;51.578;5.456;2023-07-02T00:51:20;100582.03;;;15.41;100.00
58622;BME280;44389;51.578;5.456;2023-07-02T00:53:46;100590.69;;;15.38;100.00
58622;BME280;44389;51.578;5.456;2023-07-02T00:56:12;100593.31;;;15.44;100.00
58622;BME280;44389;51.578;5.456;2023-07-02T00:58:40;100588.13;;;15.47;100.00
58622;BME280;44389;51.578;5.456;2023-07-02T01:01:06;100588.16;;;15.51;100.00
58622;BME280;44389;51.578;5.456;2023-07-02T01:03:32;100587.31;;;15.53;100.00
58622;BME280;44389;51.578;5.456;2023-07-02T01:06:00;100587.31;;;15.55;100.00
58622;BME280;44389;51.578;5.456;2023-07-02T01:08:28;100587.31;;;15.58;100.00
58622;BME280;44389;51.578;5.456;2023-07-02T01:10:54;100582.13;;;15.58;100.00
58622;BME280;44389;51.578;5.456;2023-07-02T01:13:21;100589.91;;;15.55;100.00
58622;BME280;44389;51.578;5.456;2023-07-02T01:15:48;100591.63;;;15.53;100.00
58622;BME280;44389;51.578;5.456;2023-07-02T01:18:14;100598.56;;;15.51;100.00
58622;BME280;44389;51.578;5.456;2023-07-02T01:20:41;100596.78;;;15.46;100.00
58622;BME280;44389;51.578;5.456;2023-07-02T01:23:07;100593.28;;;15.41;100.00
58622;BME280;44389;51.578;5.456;2023-07-02T01:25:34;100591.53;;;15.37;100.00
58622;BME280;44389;51.578;5.456;2023-07-02T01:28:02;100594.09;;;15.29;100.00
58622;BME280;44389;51.578;5.456;2023-07-02T01:30:27;100598.41;;;15.27;100.00
58622;BME280;44389;51.578;5.456;2023-07-02T01:32:52;100607.00;;;15.22;100.00
58622;BME280;44389;51.578;5.456;2023-07-02T01:35:18;100608.75;;;15.20;100.00
58622;BME280;44389;51.578;5.456;2023-07-02T01:37:44;100609.56;;;15.15;100.00
58622;BME280;44389;51.578;5.456;2023-07-02T01:40:09;100617.34;;;15.15;100.00
58622;BME280;44389;51.578;5.456;2023-07-02T01:42:34;100610.44;;;15.14;100.00
58622;BME280;44389;51.578;5.456;2023-07-02T01:45:00;100614.75;;;15.09;100.00
58622;BME280;44389;51.578;5.456;2023-07-02T01:47:26;100605.19;;;15.07;100.00
58622;BME280;44389;51.578;5.456;2023-07-02T01:49:51;100612.09;;;15.03;100.00
58622;BME280;44389;51.578;5.456;2023-07-02T01:52:17;100607.69;;;14.97;100.00
58622;BME280;44389;51.578;5.456;2023-07-02T01:54:43;100612.03;;;14.95;100.00
58622;BME280;44389;51.578;5.456;2023-07-02T01:57:08;100614.63;;;14.94;100.00
58622;BME280;44389;51.578;5.456;2023-07-02T01:59:34;100612.84;;;14.90;100.00
58622;BME280;44389;51.578;5.456;2023-07-02T02:01:59;100621.50;;;14.89;100.00
58622;BME280;44389;51.578;5.456;2023-07-02T02:04:25;100621.50;;;14.89;100.00
58622;BME280;44389;51.578;5.456;2023-07-02T02:06:51;100619.75;;;14.88;100.00
58622;BME280;44389;51.578;5.456;2023-07-02T02:09:17;100621.47;;;14.87;100.00
58622;BME280;44389;51.578;5.456;2023-07-02T02:11:46;100615.41;;;14.87;100.00
58622;BME280;44389;51.578;5.456;2023-07-02T02:14:12;100616.28;;;14.87;100.00
58622;BME280;44389;51.578;5.456;2023-07-02T02:16:37;100616.25;;;14.84;100.00
58622;BME280;44389;51.578;5.456;2023-07-02T02:19:03;100620.53;;;14.80;100.00
58622;BME280;44389;51.578;5.456;2023-07-02T02:21:29;100626.56;;;14.78;100.00
58622;BME280;44389;51.578;5.456;2023-07-02T02:23:54;100616.97;;;14.69;100.00
58622;BME280;44389;51.578;5.456;2023-07-02T02:26:21;100621.22;;;14.62;100.00
58622;BME280;44389;51.578;5.456;2023-07-02T02:28:47;100619.44;;;14.57;100.00
58622;BME280;44389;51.578;5.456;2023-07-02T02:31:12;100621.13;;;14.50;100.00
58622;BME280;44389;51.578;5.456;2023-07-02T02:33:37;100625.41;;;14.45;100.00
58622;BME280;44389;51.578;5.456;2023-07-02T02:36:03;100625.41;;;14.46;100.00
58622;BME280;44389;51.578;5.456;2023-07-02T02:38:28;100632.25;;;14.41;100.00
58622;BME280;44389;51.578;5.456;2023-07-02T02:40:54;100628.75;;;14.38;100.00
58622;BME280;44389;51.578;5.456;2023-07-02T02:43:19;100633.88;;;14.33;100.00
58622;BME280;44389;51.578;5.456;2023-07-02T02:45:46;100632.13;;;14.29;100.00
58622;BME280;44389;51.578;5.456;2023-07-02T02:48:11;100634.69;;;14.26;100.00
58622;BME280;44389;51.578;5.456;2023-07-02T02:50:37;100644.13;;;14.21;100.00
58622;BME280;44389;51.578;5.456;2023-07-02T02:53:09;100644.03;;;14.11;100.00
58622;BME280;44389;51.578;5.456;2023-07-02T02:55:36;100649.22;;;14.11;100.00
58622;BME280;44389;51.578;5.456;2023-07-02T02:58:01;100647.47;;;14.10;100.00
58622;BME280;44389;51.578;5.456;2023-07-02T03:00:27;100652.66;;;14.10;100.00
58622;BME280;44389;51.578;5.456;2023-07-02T03:02:52;100649.13;;;14.02;100.00
58622;BME280;44389;51.578;5.456;2023-07-02T03:05:17;100652.56;;;14.03;100.00
58622;BME280;44389;51.578;5.456;2023-07-02T03:07:43;100659.41;;;13.99;100.00
58622;BME280;44389;51.578;5.456;2023-07-02T03:10:08;100660.25;;;13.96;100.00
58622;BME280;44389;51.578;5.456;2023-07-02T03:12:34;100665.44;;;13.98;100.00
58622;BME280;44389;51.578;5.456;2023-07-02T03:14:59;100662.84;;;13.95;100.00
58622;BME280;44389;51.578;5.456;2023-07-02T03:17:25;100668.84;;;13.94;100.00
58622;BME280;44389;51.578;5.456;2023-07-02T03:19:51;100673.13;;;13.90;100.00
58622;BME280;44389;51.578;5.456;2023-07-02T03:22:16;100674.00;;;13.89;100.00
58622;BME280;44389;51.578;5.456;2023-07-02T03:24:41;100678.34;;;13.92;100.00
58622;BME280;44389;51.578;5.456;2023-07-02T03:27:07;100679.19;;;13.89;100.00
58622;BME280;44389;51.578;5.456;2023-07-02T03:29:33;100678.19;;;13.82;100.00
58622;BME280;44389;51.578;5.456;2023-07-02T03:31:59;100691.97;;;13.78;100.00
58622;BME280;44389;51.578;5.456;2023-07-02T03:34:24;100686.75;;;13.74;100.00
58622;BME280;44389;51.578;5.456;2023-07-02T03:36:50;100685.81;;;13.69;100.00
58622;BME280;44389;51.578;5.456;2023-07-02T03:39:15;100689.25;;;13.69;100.00
58622;BME280;44389;51.578;5.456;2023-07-02T03:41:44;100691.84;;;13.69;100.00
58622;BME280;44389;51.578;5.456;2023-07-02T03:44:09;100695.34;;;13.71;100.00
58622;BME280;44389;51.578;5.456;2023-07-02T03:46:35;100702.25;;;13.72;100.00
58622;BME280;44389;51.578;5.456;2023-07-02T03:49:01;100697.97;;;13.74;100.00
58622;BME280;44389;51.578;5.456;2023-07-02T03:51:26;100695.28;;;13.68;100.00
58622;BME280;44389;51.578;5.456;2023-07-02T03:53:51;100698.81;;;13.73;100.00
58622;BME280;44389;51.578;5.456;2023-07-02T03:56:17;100698.81;;;13.73;100.00
58622;BME280;44389;51.578;5.456;2023-07-02T03:58:42;100706.63;;;13.76;100.00
58622;BME280;44389;51.578;5.456;2023-07-02T04:01:07;100707.50;;;13.77;100.00
58622;BME280;44389;51.578;5.456;2023-07-02T04:03:33;100701.47;;;13.76;100.00
58622;BME280;44389;51.578;5.456;2023-07-02T04:05:58;100704.06;;;13.78;100.00
58622;BME280;44389;51.578;5.456;2023-07-02T04:08:25;100707.47;;;13.75;100.00
58622;BME280;44389;51.578;5.456;2023-07-02T04:10:50;100701.41;;;13.73;100.00
58622;BME280;44389;51.578;5.456;2023-07-02T04:13:16;100710.00;;;13.71;100.00
58622;BME280;44389;51.578;5.456;2023-07-02T04:15:42;100716.00;;;13.68;100.00
58622;BME280;44389;51.578;5.456;2023-07-02T04:18:07;100709.13;;;13.70;100.00
58622;BME280;44389;51.578;5.456;2023-07-02T04:20:32;100706.53;;;13.69;100.00
58622;BME280;44389;51.578;5.456;2023-07-02T04:22:58;100709.94;;;13.66;100.00
58622;BME280;44389;51.578;5.456;2023-07-02T04:25:23;100714.22;;;13.64;100.00
58622;BME280;44389;51.578;5.456;2023-07-02T04:27:48;100718.50;;;13.62;100.00
58622;BME280;44389;51.578;5.456;2023-07-02T04:30:14;100721.97;;;13.62;100.00
58622;BME280;44389;51.578;5.456;2023-07-02T04:32:40;100718.50;;;13.62;100.00
58622;BME280;44389;51.578;5.456;2023-07-02T04:35:06;100719.41;;;13.64;100.00
58622;BME280;44389;51.578;5.456;2023-07-02T04:37:32;100718.56;;;13.66;100.00
58622;BME280;44389;51.578;5.456;2023-07-02T04:39:57;100729.84;;;13.70;100.00
58622;BME280;44389;51.578;5.456;2023-07-02T04:42:23;100731.63;;;13.74;100.00
58622;BME280;44389;51.578;5.456;2023-07-02T04:44:53;100729.97;;;13.79;100.00
58622;BME280;44389;51.578;5.456;2023-07-02T04:47:19;100729.13;;;13.80;100.00
58622;BME280;44389;51.578;5.456;2023-07-02T04:49:44;100736.09;;;13.83;100.00
58622;BME280;44389;51.578;5.456;2023-07-02T04:52:09;100737.84;;;13.84;100.00
58622;BME280;44389;51.578;5.456;2023-07-02T04:54:35;100740.47;;;13.90;100.00
58622;BME280;44389;51.578;5.456;2023-07-02T04:57:00;100744.06;;;13.97;100.00
58622;BME280;44389;51.578;5.456;2023-07-02T04:59:25;100743.22;;;13.99;99.97
58622;BME280;44389;51.578;5.456;2023-07-02T05:01:51;100741.53;;;14.03;99.73
58622;BME280;44389;51.578;5.456;2023-07-02T05:04:16;100740.69;;;14.04;98.88
58622;BME280;44389;51.578;5.456;2023-07-02T05:06:41;100748.53;;;14.07;98.10
58622;BME280;44389;51.578;5.456;2023-07-02T05:09:07;100752.81;;;14.08;97.25
58622;BME280;44389;51.578;5.456;2023-07-02T05:11:32;100751.13;;;14.10;97.83
58622;BME280;44389;51.578;5.456;2023-07-02T05:13:57;100746.88;;;14.14;95.87
58622;BME280;44389;51.578;5.456;2023-07-02T05:16:23;100759.94;;;14.22;96.04
58622;BME280;44389;51.578;5.456;2023-07-02T05:18:48;100752.22;;;14.28;94.51
58622;BME280;44389;51.578;5.456;2023-07-02T05:21:17;100760.13;;;14.37;94.48
58622;BME280;44389;51.578;5.456;2023-07-02T05:23:42;100761.06;;;14.44;94.52
58622;BME280;44389;51.578;5.456;2023-07-02T05:26:08;100769.81;;;14.54;96.00
58622;BME280;44389;51.578;5.456;2023-07-02T05:28:33;100768.19;;;14.60;93.58
58622;BME280;44389;51.578;5.456;2023-07-02T05:30:58;100767.41;;;14.66;92.95
58622;BME280;44389;51.578;5.456;2023-07-02T05:33:24;100775.28;;;14.75;93.06
58622;BME280;44389;51.578;5.456;2023-07-02T05:35:49;100783.16;;;14.81;92.00
58622;BME280;44389;51.578;5.456;2023-07-02T05:38:14;100782.31;;;14.84;90.35
58622;BME280;44389;51.578;5.456;2023-07-02T05:40:40;100784.19;;;14.97;90.46
58622;BME280;44389;51.578;5.456;2023-07-02T05:43:06;100788.56;;;15.03;90.51
58622;BME280;44389;51.578;5.456;2023-07-02T05:45:31;100798.19;;;15.12;89.84
58622;BME280;44389;51.578;5.456;2023-07-02T05:47:56;100791.34;;;15.22;90.92
58622;BME280;44389;51.578;5.456;2023-07-02T05:50:22;100794.84;;;15.25;87.92
58622;BME280;44389;51.578;5.456;2023-07-02T05:52:47;100798.38;;;15.34;88.39
58622;BME280;44389;51.578;5.456;2023-07-02T05:55:12;100792.31;;;15.33;86.85
58622;BME280;44389;51.578;5.456;2023-07-02T05:57:38;100785.44;;;15.40;86.90
58622;BME280;44389;51.578;5.456;2023-07-02T06:00:07;100788.06;;;15.41;86.30
58622;BME280;44389;51.578;5.456;2023-07-02T06:02:33;100777.66;;;15.38;83.77
58622;BME280;44389;51.578;5.456;2023-07-02T06:04:58;100792.34;;;15.36;85.53
58622;BME280;44389;51.578;5.456;2023-07-02T06:07:24;100791.50;;;15.37;84.53
58622;BME280;44389;51.578;5.456;2023-07-02T06:09:50;100804.47;;;15.39;84.15
58622;BME280;44389;51.578;5.456;2023-07-02T06:12:15;100801.94;;;15.45;83.66
58622;BME280;44389;51.578;5.456;2023-07-02T06:14:40;100805.50;;;15.58;85.47
58622;BME280;44389;51.578;5.456;2023-07-02T06:17:07;100815.06;;;15.62;81.79
58622;BME280;44389;51.578;5.456;2023-07-02T06:19:32;100811.63;;;15.63;82.31
58622;BME280;44389;51.578;5.456;2023-07-02T06:21:58;100810.81;;;15.72;83.71
58622;BME280;44389;51.578;5.456;2023-07-02T06:24:23;100812.63;;;15.79;82.89
58622;BME280;44389;51.578;5.456;2023-07-02T06:26:48;100818.78;;;15.86;81.83
58622;BME280;44389;51.578;5.456;2023-07-02T06:29:14;100820.53;;;15.90;81.63
58622;BME280;44389;51.578;5.456;2023-07-02T06:31:39;100821.41;;;15.93;80.49
58622;BME280;44389;51.578;5.456;2023-07-02T06:34:04;100824.88;;;15.94;80.01
58622;BME280;44389;51.578;5.456;2023-07-02T06:36:30;100827.59;;;16.09;81.79
58622;BME280;44389;51.578;5.456;2023-07-02T06:38:55;100823.34;;;16.24;81.24
58622;BME280;44389;51.578;5.456;2023-07-02T06:41:20;100822.53;;;16.31;79.36
58622;BME280;44389;51.578;5.456;2023-07-02T06:43:45;100818.22;;;16.35;79.29
58622;BME280;44389;51.578;5.456;2023-07-02T06:46:11;100825.16;;;16.43;79.38
58622;BME280;44389;51.578;5.456;2023-07-02T06:48:37;100826.06;;;16.49;77.72
58622;BME280;44389;51.578;5.456;2023-07-02T06:51:02;100827.75;;;16.43;75.71
58622;BME280;44389;51.578;5.456;2023-07-02T06:53:27;100835.66;;;16.53;76.29
58622;BME280;44389;51.578;5.456;2023-07-02T06:55:53;100842.63;;;16.69;78.19
58622;BME280;44389;51.578;5.456;2023-07-02T06:58:18;100843.53;;;16.71;75.67
58622;BME280;44389;51.578;5.456;2023-07-02T07:00:44;100841.84;;;16.83;75.88
58622;BME280;44389;51.578;5.456;2023-07-02T07:03:10;100849.63;;;16.79;73.46
58622;BME280;44389;51.578;5.456;2023-07-02T07:05:35;100849.63;;;16.78;71.40
58622;BME280;44389;51.578;5.456;2023-07-02T07:08:00;100854.06;;;16.93;72.31
58622;BME280;44389;51.578;5.456;2023-07-02T07:10:26;100854.06;;;16.96;72.98
58622;BME280;44389;51.578;5.456;2023-07-02T07:12:51;100856.66;;;16.93;70.59
58622;BME280;44389;51.578;5.456;2023-07-02T07:15:17;100857.47;;;16.83;68.40
58622;BME280;44389;51.578;5.456;2023-07-02T07:17:42;100858.44;;;17.03;70.45
58622;BME280;44389;51.578;5.456;2023-07-02T07:20:08;100866.22;;;17.00;71.20
58622;BME280;44389;51.578;5.456;2023-07-02T07:22:33;100862.78;;;17.07;70.47
58622;BME280;44389;51.578;5.456;2023-07-02T07:24:59;100869.72;;;17.11;69.39
58622;BME280;44389;51.578;5.456;2023-07-02T07:27:24;100864.53;;;17.08;68.89
58622;BME280;44389;51.578;5.456;2023-07-02T07:29:50;100869.75;;;17.15;69.33
58622;BME280;44389;51.578;5.456;2023-07-02T07:32:15;100880.16;;;17.18;68.71
58622;BME280;44389;51.578;5.456;2023-07-02T07:34:42;100879.31;;;17.22;68.00
58622;BME280;44389;51.578;5.456;2023-07-02T07:37:07;100879.31;;;17.31;69.11
58622;BME280;44389;51.578;5.456;2023-07-02T07:39:32;100883.69;;;17.35;70.24
58622;BME280;44389;51.578;5.456;2023-07-02T07:41:57;100891.50;;;17.38;67.54
58622;BME280;44389;51.578;5.456;2023-07-02T07:44:23;100890.63;;;17.35;66.53
58622;BME280;44389;51.578;5.456;2023-07-02T07:46:48;100892.38;;;17.40;66.21
58622;BME280;44389;51.578;5.456;2023-07-02T07:49:13;100895.88;;;17.75;69.38
58622;BME280;44389;51.578;5.456;2023-07-02T07:51:39;100899.34;;;17.51;65.09
58622;BME280;44389;51.578;5.456;2023-07-02T07:54:04;100890.66;;;17.39;65.39
58622;BME280;44389;51.578;5.456;2023-07-02T07:56:30;100900.19;;;17.34;66.25
58622;BME280;44389;51.578;5.456;2023-07-02T07:58:55;100896.69;;;17.31;64.33
58622;BME280;44389;51.578;5.456;2023-07-02T08:01:20;100902.78;;;17.25;64.58
58622;BME280;44389;51.578;5.456;2023-07-02T08:03:46;100901.91;;;17.27;64.16
58622;BME280;44389;51.578;5.456;2023-07-02T08:06:11;100901.03;;;17.36;64.17
58622;BME280;44389;51.578;5.456;2023-07-02T08:08:37;100910.63;;;17.53;64.25
58622;BME280;44389;51.578;5.456;2023-07-02T08:11:02;100910.66;;;17.59;63.64
58622;BME280;44389;51.578;5.456;2023-07-02T08:13:28;100902.84;;;17.74;62.87
58622;BME280;44389;51.578;5.456;2023-07-02T08:15:53;100908.91;;;17.66;62.73
58622;BME280;44389;51.578;5.456;2023-07-02T08:18:18;100910.66;;;17.85;63.52
58622;BME280;44389;51.578;5.456;2023-07-02T08:20:44;100912.41;;;17.89;61.76
58622;BME280;44389;51.578;5.456;2023-07-02T08:23:09;100916.78;;;18.04;62.17
58622;BME280;44389;51.578;5.456;2023-07-02T08:25:34;100924.59;;;18.07;59.31
58622;BME280;44389;51.578;5.456;2023-07-02T08:28:00;100926.34;;;18.18;60.93
58622;BME280;44389;51.578;5.456;2023-07-02T08:30:25;100924.63;;;18.17;60.15
58622;BME280;44389;51.578;5.456;2023-07-02T08:32:50;100923.72;;;18.02;59.67
58622;BME280;44389;51.578;5.456;2023-07-02T08:35:17;100924.59;;;17.98;60.90
58622;BME280;44389;51.578;5.456;2023-07-02T08:37:43;100925.50;;;18.00;61.05
58622;BME280;44389;51.578;5.456;2023-07-02T08:40:20;100930.69;;;18.28;63.09
58622;BME280;44389;51.578;5.456;2023-07-02T08:42:46;100933.28;;;18.47;57.98
58622;BME280;44389;51.578;5.456;2023-07-02T08:45:15;100939.41;;;18.19;57.09
58622;BME280;44389;51.578;5.456;2023-07-02T08:47:42;100935.91;;;18.37;58.21
58622;BME280;44389;51.578;5.456;2023-07-02T08:50:08;100939.34;;;18.49;56.64
58622;BME280;44389;51.578;5.456;2023-07-02T08:52:33;100946.34;;;18.30;54.63
58622;BME280;44389;51.578;5.456;2023-07-02T08:54:59;100942.88;;;18.24;56.21
58622;BME280;44389;51.578;5.456;2023-07-02T08:57:24;100941.13;;;18.19;56.23
58622;BME280;44389;51.578;5.456;2023-07-02T08:59:49;100937.63;;;18.15;60.24
58622;BME280;44389;51.578;5.456;2023-07-02T09:02:16;100940.22;;;17.83;58.69
58622;BME280;44389;51.578;5.456;2023-07-02T09:04:42;100933.25;;;17.61;58.68
58622;BME280;44389;51.578;5.456;2023-07-02T09:07:09;100936.72;;;17.87;60.40
58622;BME280;44389;51.578;5.456;2023-07-02T09:09:48;100929.81;;;18.31;59.26
58622;BME280;44389;51.578;5.456;2023-07-02T09:12:29;100937.56;;;18.69;56.97
58622;BME280;44389;51.578;5.456;2023-07-02T09:15:00;100944.50;;;18.97;57.13
58622;BME280;44389;51.578;5.456;2023-07-02T09:17:30;100941.94;;;18.67;56.25
58622;BME280;44389;51.578;5.456;2023-07-02T09:19:55;100940.22;;;18.52;59.36
58622;BME280;44389;51.578;5.456;2023-07-02T09:22:21;100943.75;;;18.31;60.02
58622;BME280;44389;51.578;5.456;2023-07-02T09:24:54;100950.69;;;18.06;60.80
58622;BME280;44389;51.578;5.456;2023-07-02T09:27:20;100940.22;;;17.89;61.57
58622;BME280;44389;51.578;5.456;2023-07-02T09:29:50;100941.94;;;17.85;59.20
58622;BME280;44389;51.578;5.456;2023-07-02T09:32:24;100936.78;;;18.24;59.50
58622;BME280;44389;51.578;5.456;2023-07-02T09:34:50;100937.59;;;18.66;57.00
58622;BME280;44389;51.578;5.456;2023-07-02T09:37:15;100940.91;;;19.21;56.51
58622;BME280;44389;51.578;5.456;2023-07-02T09:39:41;100929.34;;;19.65;56.49
58622;BME280;44389;51.578;5.456;2023-07-02T09:42:08;100929.44;;;19.50;56.02
58622;BME280;44389;51.578;5.456;2023-07-02T09:44:35;100922.47;;;19.46;55.23
58622;BME280;44389;51.578;5.456;2023-07-02T09:47:02;100933.06;;;19.22;55.53
58622;BME280;44389;51.578;5.456;2023-07-02T09:49:33;100936.63;;;19.04;53.77
58622;BME280;44389;51.578;5.456;2023-07-02T09:52:00;100931.47;;;18.81;53.48
58622;BME280;44389;51.578;5.456;2023-07-02T09:54:27;100940.13;;;18.88;57.05
58622;BME280;44389;51.578;5.456;2023-07-02T09:56:53;100942.78;;;18.79;55.63
58622;BME280;44389;51.578;5.456;2023-07-02T09:59:18;100940.19;;;18.79;56.89
58622;BME280;44389;51.578;5.456;2023-07-02T10:01:44;100939.31;;;18.76;56.23
58622;BME280;44389;51.578;5.456;2023-07-02T10:04:13;100948.88;;;18.79;58.49
58622;BME280;44389;51.578;5.456;2023-07-02T10:06:46;100951.50;;;18.65;57.13
58622;BME280;44389;51.578;5.456;2023-07-02T10:09:12;100960.22;;;18.53;57.31
58622;BME280;44389;51.578;5.456;2023-07-02T10:11:37;100955.91;;;18.55;59.78
58622;BME280;44389;51.578;5.456;2023-07-02T10:14:02;100956.78;;;18.30;57.61
58622;BME280;44389;51.578;5.456;2023-07-02T10:16:28;100961.97;;;18.36;58.36
58622;BME280;44389;51.578;5.456;2023-07-02T10:19:08;100966.38;;;18.17;58.65
58622;BME280;44389;51.578;5.456;2023-07-02T10:21:33;100969.81;;;17.96;58.54
58622;BME280;44389;51.578;5.456;2023-07-02T10:26:36;100974.00;;;17.44;62.95
58622;BME280;44389;51.578;5.456;2023-07-02T10:29:01;100973.91;;;17.19;64.88
58622;BME280;44389;51.578;5.456;2023-07-02T10:31:28;100972.19;;;17.24;63.88
58622;BME280;44389;51.578;5.456;2023-07-02T10:33:54;100968.84;;;17.58;64.55
58622;BME280;44389;51.578;5.456;2023-07-02T10:36:20;100981.78;;;17.35;62.04
58622;BME280;44389;51.578;5.456;2023-07-02T10:38:47;100980.09;;;17.43;62.36
58622;BME280;44389;51.578;5.456;2023-07-02T10:41:23;100982.66;;;17.34;61.53
58622;BME280;44389;51.578;5.456;2023-07-02T10:43:49;100971.56;;;18.37;59.58
58622;BME280;44389;51.578;5.456;2023-07-02T10:46:21;100973.63;;;19.93;55.29
58622;BME280;44389;51.578;5.456;2023-07-02T10:48:54;100977.44;;;21.35;49.80
58622;BME280;44389;51.578;5.456;2023-07-02T10:51:20;100978.88;;;22.19;45.93
58622;BME280;44389;51.578;5.456;2023-07-02T10:53:46;100976.34;;;22.13;47.53
58622;BME280;44389;51.578;5.456;2023-07-02T10:56:20;100983.34;;;21.54;47.43
58622;BME280;44389;51.578;5.456;2023-07-02T10:58:46;100981.38;;;21.00;47.84
58622;BME280;44389;51.578;5.456;2023-07-02T11:01:11;100989.94;;;20.28;49.50
58622;BME280;44389;51.578;5.456;2023-07-02T11:03:37;100980.72;;;19.71;51.44
58622;BME280;44389;51.578;5.456;2023-07-02T11:06:02;100986.88;;;19.59;54.21
58622;BME280;44389;51.578;5.456;2023-07-02T11:08:35;100982.94;;;20.28;53.65
58622;BME280;44389;51.578;5.456;2023-07-02T11:11:06;100990.44;;;20.68;52.02
58622;BME280;44389;51.578;5.456;2023-07-02T11:13:31;100985.38;;;20.50;49.93
58622;BME280;44389;51.578;5.456;2023-07-02T11:15:57;100984.63;;;20.37;51.30
58622;BME280;44389;51.578;5.456;2023-07-02T11:18:22;100991.84;;;20.02;50.90
58622;BME280;44389;51.578;5.456;2023-07-02T11:20:47;100988.47;;;19.88;52.70
58622;BME280;44389;51.578;5.456;2023-07-02T11:23:25;100990.09;;;20.09;53.70
58622;BME280;44389;51.578;5.456;2023-07-02T11:25:58;100985.91;;;20.86;51.00
58622;BME280;44389;51.578;5.456;2023-07-02T11:28:25;100989.09;;;21.13;50.95
58622;BME280;44389;51.578;5.456;2023-07-02T11:30:50;100986.88;;;21.55;47.60
58622;BME280;44389;51.578;5.456;2023-07-02T11:33:16;100989.31;;;22.24;46.21
58622;BME280;44389;51.578;5.456;2023-07-02T11:35:41;100986.59;;;23.25;44.14
58622;BME280;44389;51.578;5.456;2023-07-02T11:38:09;100982.94;;;24.11;42.62
58622;BME280;44389;51.578;5.456;2023-07-02T11:40:35;100975.28;;;23.62;41.57
58622;BME280;44389;51.578;5.456;2023-07-02T11:43:01;100976.34;;;23.10;42.41
58622;BME280;44389;51.578;5.456;2023-07-02T11:45:26;100980.13;;;23.81;41.43
58622;BME280;44389;51.578;5.456;2023-07-02T11:47:51;100976.69;;;24.15;39.38
58622;BME280;44389;51.578;5.456;2023-07-02T11:50:17;100979.09;;;24.59;38.34
58622;BME280;44389;51.578;5.456;2023-07-02T11:52:42;100968.34;;;23.58;40.24
58622;BME280;44389;51.578;5.456;2023-07-02T11:55:07;100980.69;;;23.15;42.40
58622;BME280;44389;51.578;5.456;2023-07-02T11:57:33;100981.34;;;22.28;43.00
58622;BME280;44389;51.578;5.456;2023-07-02T11:59:58;100981.78;;;21.38;44.75
58622;BME280;44389;51.578;5.456;2023-07-02T12:02:25;100985.09;;;20.81;46.44
58622;BME280;44389;51.578;5.456;2023-07-02T12:04:50;100979.25;;;20.51;47.24
58622;BME280;44389;51.578;5.456;2023-07-02T12:07:15;100973.59;;;20.96;47.44
58622;BME280;44389;51.578;5.456;2023-07-02T12:09:41;100975.25;;;21.71;47.11
58622;BME280;44389;51.578;5.456;2023-07-02T12:12:06;100980.25;;;22.90;44.11
58622;BME280;44389;51.578;5.456;2023-07-02T12:14:32;100971.88;;;23.57;42.99
58622;BME280;44389;51.578;5.456;2023-07-02T12:16:57;100961.44;;;25.55;38.49
58622;BME280;44389;51.578;5.456;2023-07-02T12:19:22;100964.47;;;25.98;36.98
58622;BME280;44389;51.578;5.456;2023-07-02T12:21:48;100966.19;;;25.99;35.65
58622;BME280;44389;51.578;5.456;2023-07-02T12:24:13;100979.72;;;24.69;35.45
58622;BME280;44389;51.578;5.456;2023-07-02T12:26:42;100974.47;;;23.98;37.03
58622;BME280;44389;51.578;5.456;2023-07-02T12:29:07;100968.16;;;24.05;36.08
58622;BME280;44389;51.578;5.456;2023-07-02T12:31:32;100980.06;;;24.20;37.97
58622;BME280;44389;51.578;5.456;2023-07-02T12:33:58;100977.91;;;24.71;36.10
58622;BME280;44389;51.578;5.456;2023-07-02T12:36:23;100971.94;;;24.29;36.25
58622;BME280;44389;51.578;5.456;2023-07-02T12:38:49;100980.41;;;24.06;36.96
58622;BME280;44389;51.578;5.456;2023-07-02T12:41:14;100974.81;;;24.88;35.03